Terminal Aerodrome Forecast
Issued by NWS

Home | Current Version | Previous Version | Graphics & Text | Print | Product List | Glossary On
Versions: 1 2 3 4 5 6 7 8 9 10 11 12 13 14 15 16 17 18 19 20
000
FTUS43 KMPX 240523 CCA
TAFRWF
TAF COR
KRWF 240523Z 2405/2506 13012G20KT P6SM OVC007
     FM241000 13010KT 5SM BR OVC004
     FM241600 14012KT P6SM BKN008 OVC014
     FM241800 15014G22KT P6SM VCSH SCT020 BKN035
     FM242000 16017G25KT P6SM VCTS SCT025CB OVC040
      TEMPO 2502/2506 2SM TSRA OVC015CB=

USA.gov is the U.S. government's official web portal to all federal, state and local government web resources and services.